sensor_id;sensor_type;location;lat;lon;timestamp;pressure;altitude;pressure_sealevel;temperature;humidity
72157;BME280;60035;52.122;5.406;2023-07-13T00:31:18;101504.03;;;17.11;80.45
72157;BME280;60035;52.122;5.406;2023-07-13T00:33:47;101497.31;;;17.07;80.39
72157;BME280;60035;52.122;5.406;2023-07-13T00:36:13;101498.22;;;17.06;80.59
72157;BME280;60035;52.122;5.406;2023-07-13T00:38:41;101492.34;;;17.02;80.81
72157;BME280;60035;52.122;5.406;2023-07-13T00:41:08;101496.81;;;16.98;80.88
72157;BME280;60035;52.122;5.406;2023-07-13T00:43:35;101490.88;;;16.96;81.13
72157;BME280;60035;52.122;5.406;2023-07-13T00:48:32;101494.59;;;16.91;81.46
72157;BME280;60035;52.122;5.406;2023-07-13T00:51:01;101500.66;;;16.90;81.25
72157;BME280;60035;52.122;5.406;2023-07-13T00:53:29;101501.41;;;16.92;81.58
72157;BME280;60035;52.122;5.406;2023-07-13T00:55:58;101492.00;;;16.89;81.86
72157;BME280;60035;52.122;5.406;2023-07-13T00:58:26;101498.16;;;16.87;82.10
72157;BME280;60035;52.122;5.406;2023-07-13T01:00:54;101497.56;;;16.81;82.23
72157;BME280;60035;52.122;5.406;2023-07-13T01:03:20;101494.28;;;16.78;82.73
72157;BME280;60035;52.122;5.406;2023-07-13T01:05:49;101494.53;;;16.72;82.83
72157;BME280;60035;52.122;5.406;2023-07-13T01:08:16;101486.94;;;16.69;83.06
72157;BME280;60035;52.122;5.406;2023-07-13T01:10:57;101492.94;;;16.69;83.72
72157;BME280;60035;52.122;5.406;2023-07-13T01:13:25;101501.66;;;16.66;83.65
72157;BME280;60035;52.122;5.406;2023-07-13T01:15:53;101510.59;;;16.59;84.45
72157;BME280;60035;52.122;5.406;2023-07-13T01:22:09;101509.75;;;16.59;84.77
72157;BME280;60035;52.122;5.406;2023-07-13T01:28:26;101514.91;;;16.59;84.87
72157;BME280;60035;52.122;5.406;2023-07-13T01:30:55;101510.69;;;16.58;85.28
72157;BME280;60035;52.122;5.406;2023-07-13T01:52:02;101506.97;;;16.24;87.56
72157;BME280;60035;52.122;5.406;2023-07-13T01:54:29;101515.69;;;16.21;88.10
72157;BME280;60035;52.122;5.406;2023-07-13T02:00:43;101510.19;;;16.08;89.61
72157;BME280;60035;52.122;5.406;2023-07-13T02:03:09;101508.72;;;16.03;90.34
72157;BME280;60035;52.122;5.406;2023-07-13T02:05:36;101511.47;;;15.98;91.33
72157;BME280;60035;52.122;5.406;2023-07-13T02:08:04;101515.88;;;15.96;91.85
72157;BME280;60035;52.122;5.406;2023-07-13T02:10:31;101508.06;;;15.97;91.75
72157;BME280;60035;52.122;5.406;2023-07-13T02:16:41;101523.81;;;15.91;92.44
72157;BME280;60035;52.122;5.406;2023-07-13T02:19:10;101523.94;;;15.88;92.79
72157;BME280;60035;52.122;5.406;2023-07-13T02:21:36;101519.81;;;15.84;93.53
72157;BME280;60035;52.122;5.406;2023-07-13T02:24:05;101519.75;;;15.86;93.93
72157;BME280;60035;52.122;5.406;2023-07-13T02:26:32;101524.91;;;15.86;94.49
72157;BME280;60035;52.122;5.406;2023-07-13T02:29:01;101517.34;;;15.81;94.85
72157;BME280;60035;52.122;5.406;2023-07-13T02:31:28;101523.50;;;15.77;95.28
72157;BME280;60035;52.122;5.406;2023-07-13T02:33:54;101520.28;;;15.72;96.00
72157;BME280;60035;52.122;5.406;2023-07-13T02:36:21;101512.56;;;15.70;96.18
72157;BME280;60035;52.122;5.406;2023-07-13T02:38:49;101528.19;;;15.67;96.99
72157;BME280;60035;52.122;5.406;2023-07-13T02:41:16;101533.28;;;15.69;97.25
72157;BME280;60035;52.122;5.406;2023-07-13T02:43:43;101527.38;;;15.66;97.96
72157;BME280;60035;52.122;5.406;2023-07-13T02:46:09;101523.09;;;15.65;98.36
72157;BME280;60035;52.122;5.406;2023-07-13T02:48:38;101528.44;;;15.61;99.28
72157;BME280;60035;52.122;5.406;2023-07-13T02:51:06;101526.78;;;15.60;99.64
72157;BME280;60035;52.122;5.406;2023-07-13T02:53:34;101522.66;;;15.54;99.95
72157;BME280;60035;52.122;5.406;2023-07-13T02:56:24;101518.31;;;15.56;100.00
72157;BME280;60035;52.122;5.406;2023-07-13T02:58:51;101521.91;;;15.52;100.00
72157;BME280;60035;52.122;5.406;2023-07-13T03:01:18;101522.06;;;15.47;100.00
72157;BME280;60035;52.122;5.406;2023-07-13T03:03:46;101524.72;;;15.46;100.00
72157;BME280;60035;52.122;5.406;2023-07-13T03:06:16;101526.56;;;15.42;100.00
72157;BME280;60035;52.122;5.406;2023-07-13T03:08:44;101537.09;;;15.38;100.00
72157;BME280;60035;52.122;5.406;2023-07-13T03:14:58;101539.75;;;15.35;100.00
72157;BME280;60035;52.122;5.406;2023-07-13T03:17:47;101536.41;;;15.32;100.00
72157;BME280;60035;52.122;5.406;2023-07-13T03:23:46;101537.38;;;15.30;100.00
72157;BME280;60035;52.122;5.406;2023-07-13T03:26:17;101540.03;;;15.28;100.00
72157;BME280;60035;52.122;5.406;2023-07-13T03:28:45;101540.84;;;15.29;100.00
72157;BME280;60035;52.122;5.406;2023-07-13T03:31:19;101545.53;;;15.19;100.00
72157;BME280;60035;52.122;5.406;2023-07-13T03:33:47;101548.06;;;15.21;100.00
72157;BME280;60035;52.122;5.406;2023-07-13T03:36:20;101548.72;;;15.26;100.00
72157;BME280;60035;52.122;5.406;2023-07-13T03:38:49;101554.84;;;15.23;100.00
72157;BME280;60035;52.122;5.406;2023-07-13T03:41:16;101555.59;;;15.25;100.00
72157;BME280;60035;52.122;5.406;2023-07-13T03:43:43;101562.50;;;15.25;100.00
72157;BME280;60035;52.122;5.406;2023-07-13T03:46:10;101564.19;;;15.26;100.00
72157;BME280;60035;52.122;5.406;2023-07-13T03:48:37;101562.44;;;15.26;100.00
72157;BME280;60035;52.122;5.406;2023-07-13T03:51:06;101558.97;;;15.27;100.00
72157;BME280;60035;52.122;5.406;2023-07-13T03:53:32;101565.81;;;15.28;100.00
72157;BME280;60035;52.122;5.406;2023-07-13T03:56:03;101567.38;;;15.32;100.00
72157;BME280;60035;52.122;5.406;2023-07-13T03:58:39;101571.53;;;15.37;100.00
72157;BME280;60035;52.122;5.406;2023-07-13T04:01:07;101571.53;;;15.37;100.00
72157;BME280;60035;52.122;5.406;2023-07-13T04:03:35;101567.88;;;15.42;100.00
72157;BME280;60035;52.122;5.406;2023-07-13T04:06:06;101575.50;;;15.45;100.00
72157;BME280;60035;52.122;5.406;2023-07-13T04:08:36;101573.94;;;15.41;100.00
72157;BME280;60035;52.122;5.406;2023-07-13T04:11:04;101578.31;;;15.39;100.00
72157;BME280;60035;52.122;5.406;2023-07-13T04:13:31;101581.63;;;15.43;100.00
72157;BME280;60035;52.122;5.406;2023-07-13T04:15:57;101580.59;;;15.47;100.00
72157;BME280;60035;52.122;5.406;2023-07-13T04:18:27;101585.84;;;15.45;100.00
72157;BME280;60035;52.122;5.406;2023-07-13T04:20:53;101580.66;;;15.45;100.00
72157;BME280;60035;52.122;5.406;2023-07-13T04:23:20;101592.56;;;15.49;100.00
72157;BME280;60035;52.122;5.406;2023-07-13T04:29:33;101590.75;;;15.52;100.00
72157;BME280;60035;52.122;5.406;2023-07-13T04:36:43;101591.41;;;15.57;100.00
72157;BME280;60035;52.122;5.406;2023-07-13T04:39:12;101594.66;;;15.62;100.00
72157;BME280;60035;52.122;5.406;2023-07-13T04:41:41;101596.34;;;15.63;100.00
72157;BME280;60035;52.122;5.406;2023-07-13T04:44:09;101591.84;;;15.68;100.00
72157;BME280;60035;52.122;5.406;2023-07-13T04:46:37;101591.78;;;15.70;100.00
72157;BME280;60035;52.122;5.406;2023-07-13T04:49:04;101588.25;;;15.72;100.00
72157;BME280;60035;52.122;5.406;2023-07-13T04:51:30;101588.84;;;15.79;100.00
72157;BME280;60035;52.122;5.406;2023-07-13T04:53:57;101595.59;;;15.83;100.00
72157;BME280;60035;52.122;5.406;2023-07-13T04:56:36;101592.88;;;15.86;100.00
72157;BME280;60035;52.122;5.406;2023-07-13T04:59:02;101592.78;;;15.89;100.00
72157;BME280;60035;52.122;5.406;2023-07-13T05:01:36;101592.72;;;15.91;100.00
72157;BME280;60035;52.122;5.406;2023-07-13T05:04:03;101594.25;;;15.95;100.00
72157;BME280;60035;52.122;5.406;2023-07-13T05:06:30;101592.47;;;15.97;100.00
72157;BME280;60035;52.122;5.406;2023-07-13T05:08:57;101598.41;;;15.99;100.00
72157;BME280;60035;52.122;5.406;2023-07-13T05:11:24;101593.13;;;16.02;100.00
72157;BME280;60035;52.122;5.406;2023-07-13T05:13:51;101601.41;;;16.10;100.00
72157;BME280;60035;52.122;5.406;2023-07-13T05:16:18;101602.72;;;16.21;100.00
72157;BME280;60035;52.122;5.406;2023-07-13T05:18:45;101602.66;;;16.22;100.00
72157;BME280;60035;52.122;5.406;2023-07-13T05:21:11;101600.75;;;16.26;100.00
72157;BME280;60035;52.122;5.406;2023-07-13T05:23:39;101610.34;;;16.24;100.00
72157;BME280;60035;52.122;5.406;2023-07-13T05:26:08;101612.19;;;16.20;100.00
72157;BME280;60035;52.122;5.406;2023-07-13T05:28:35;101619.88;;;16.22;100.00
72157;BME280;60035;52.122;5.406;2023-07-13T05:31:03;101622.34;;;16.25;100.00
72157;BME280;60035;52.122;5.406;2023-07-13T05:33:40;101618.44;;;16.37;100.00
72157;BME280;60035;52.122;5.406;2023-07-13T05:36:07;101626.13;;;16.38;100.00
72157;BME280;60035;52.122;5.406;2023-07-13T05:38:34;101614.81;;;16.41;100.00
72157;BME280;60035;52.122;5.406;2023-07-13T05:41:03;101630.03;;;16.47;100.00
72157;BME280;60035;52.122;5.406;2023-07-13T05:43:31;101628.81;;;16.56;100.00
72157;BME280;60035;52.122;5.406;2023-07-13T05:46:07;101633.75;;;16.62;100.00
72157;BME280;60035;52.122;5.406;2023-07-13T05:48:34;101630.97;;;16.66;100.00
72157;BME280;60035;52.122;5.406;2023-07-13T05:51:01;101635.72;;;16.76;100.00
72157;BME280;60035;52.122;5.406;2023-07-13T05:53:28;101633.53;;;16.87;100.00
72157;BME280;60035;52.122;5.406;2023-07-13T05:55:55;101638.34;;;16.96;100.00
72157;BME280;60035;52.122;5.406;2023-07-13T05:58:30;101637.47;;;16.96;100.00
72157;BME280;60035;52.122;5.406;2023-07-13T06:01:10;101646.53;;;17.06;100.00
72157;BME280;60035;52.122;5.406;2023-07-13T06:03:38;101650.25;;;17.20;100.00
72157;BME280;60035;52.122;5.406;2023-07-13T06:06:05;101653.13;;;17.13;100.00
72157;BME280;60035;52.122;5.406;2023-07-13T06:08:33;101655.16;;;17.26;100.00
72157;BME280;60035;52.122;5.406;2023-07-13T06:11:15;101659.22;;;17.31;100.00
72157;BME280;60035;52.122;5.406;2023-07-13T06:13:42;101664.06;;;17.39;100.00
72157;BME280;60035;52.122;5.406;2023-07-13T06:16:08;101667.22;;;17.46;100.00
72157;BME280;60035;52.122;5.406;2023-07-13T06:18:37;101671.84;;;17.58;100.00
72157;BME280;60035;52.122;5.406;2023-07-13T06:21:08;101674.00;;;17.48;100.00
72157;BME280;60035;52.122;5.406;2023-07-13T06:23:36;101666.44;;;17.63;100.00
72157;BME280;60035;52.122;5.406;2023-07-13T06:26:04;101674.66;;;17.73;100.00
72157;BME280;60035;52.122;5.406;2023-07-13T06:28:35;101684.44;;;17.85;100.00
72157;BME280;60035;52.122;5.406;2023-07-13T06:31:08;101677.34;;;17.89;100.00
72157;BME280;60035;52.122;5.406;2023-07-13T06:33:36;101687.56;;;18.11;100.00
72157;BME280;60035;52.122;5.406;2023-07-13T06:36:07;101685.91;;;18.27;100.00
72157;BME280;60035;52.122;5.406;2023-07-13T06:38:35;101686.28;;;18.20;100.00
72157;BME280;60035;52.122;5.406;2023-07-13T06:41:02;101682.78;;;18.21;100.00
72157;BME280;60035;52.122;5.406;2023-07-13T06:43:29;101686.38;;;18.18;100.00
72157;BME280;60035;52.122;5.406;2023-07-13T06:45:59;101686.91;;;18.25;100.00
72157;BME280;60035;52.122;5.406;2023-07-13T06:48:26;101684.94;;;18.30;100.00
72157;BME280;60035;52.122;5.406;2023-07-13T06:50:53;101687.97;;;18.21;100.00
72157;BME280;60035;52.122;5.406;2023-07-13T06:53:20;101680.72;;;18.27;100.00
72157;BME280;60035;52.122;5.406;2023-07-13T06:55:47;101675.03;;;18.38;100.00
72157;BME280;60035;52.122;5.406;2023-07-13T06:58:15;101678.97;;;18.45;100.00
72157;BME280;60035;52.122;5.406;2023-07-13T07:00:42;101684.53;;;18.73;100.00
72157;BME280;60035;52.122;5.406;2023-07-13T07:03:09;101685.75;;;19.01;100.00
72157;BME280;60035;52.122;5.406;2023-07-13T07:05:36;101691.16;;;19.13;100.00
72157;BME280;60035;52.122;5.406;2023-07-13T07:08:03;101694.16;;;19.06;100.00
72157;BME280;60035;52.122;5.406;2023-07-13T07:10:30;101700.16;;;19.06;100.00
72157;BME280;60035;52.122;5.406;2023-07-13T07:12:57;101702.06;;;19.20;100.00
72157;BME280;60035;52.122;5.406;2023-07-13T07:15:25;101706.22;;;19.40;100.00
72157;BME280;60035;52.122;5.406;2023-07-13T07:17:54;101715.69;;;19.57;99.67
72157;BME280;60035;52.122;5.406;2023-07-13T07:20:21;101705.06;;;19.62;98.38
72157;BME280;60035;52.122;5.406;2023-07-13T07:22:49;101712.59;;;19.51;98.34
72157;BME280;60035;52.122;5.406;2023-07-13T07:25:15;101714.41;;;19.48;99.29
72157;BME280;60035;52.122;5.406;2023-07-13T07:27:42;101711.22;;;19.43;100.00
72157;BME280;60035;52.122;5.406;2023-07-13T07:30:12;101717.06;;;19.31;100.00
72157;BME280;60035;52.122;5.406;2023-07-13T07:32:42;101716.03;;;19.18;100.00
72157;BME280;60035;52.122;5.406;2023-07-13T07:35:23;101723.00;;;19.00;100.00
72157;BME280;60035;52.122;5.406;2023-07-13T07:37:51;101718.00;;;18.96;100.00
72157;BME280;60035;52.122;5.406;2023-07-13T07:40:18;101708.44;;;18.97;100.00
72157;BME280;60035;52.122;5.406;2023-07-13T07:42:48;101714.56;;;18.96;100.00
72157;BME280;60035;52.122;5.406;2023-07-13T07:45:14;101704.44;;;19.07;100.00
72157;BME280;60035;52.122;5.406;2023-07-13T07:47:42;101705.84;;;19.14;100.00
72157;BME280;60035;52.122;5.406;2023-07-13T07:50:09;101696.19;;;19.17;100.00
72157;BME280;60035;52.122;5.406;2023-07-13T07:52:36;101702.88;;;19.21;100.00
72157;BME280;60035;52.122;5.406;2023-07-13T07:55:05;101700.28;;;19.21;100.00
72157;BME280;60035;52.122;5.406;2023-07-13T07:57:39;101691.06;;;19.15;100.00
72157;BME280;60035;52.122;5.406;2023-07-13T08:00:12;101689.75;;;19.08;100.00
72157;BME280;60035;52.122;5.406;2023-07-13T08:02:44;101686.28;;;19.07;100.00
72157;BME280;60035;52.122;5.406;2023-07-13T08:05:14;101690.56;;;19.08;100.00
72157;BME280;60035;52.122;5.406;2023-07-13T08:07:49;101693.38;;;19.21;100.00
72157;BME280;60035;52.122;5.406;2023-07-13T08:10:16;101697.63;;;19.22;100.00
72157;BME280;60035;52.122;5.406;2023-07-13T08:12:42;101705.28;;;19.41;100.00
72157;BME280;60035;52.122;5.406;2023-07-13T08:15:29;101710.00;;;19.51;100.00
72157;BME280;60035;52.122;5.406;2023-07-13T08:17:56;101702.81;;;19.56;100.00
72157;BME280;60035;52.122;5.406;2023-07-13T08:20:23;101697.59;;;19.56;100.00
72157;BME280;60035;52.122;5.406;2023-07-13T08:22:50;101694.72;;;19.44;100.00
72157;BME280;60035;52.122;5.406;2023-07-13T08:25:17;101699.41;;;19.38;100.00
72157;BME280;60035;52.122;5.406;2023-07-13T08:27:48;101703.00;;;19.35;100.00
72157;BME280;60035;52.122;5.406;2023-07-13T08:30:15;101707.81;;;19.59;100.00
72157;BME280;60035;52.122;5.406;2023-07-13T08:32:47;101702.81;;;19.72;100.00
72157;BME280;60035;52.122;5.406;2023-07-13T08:35:14;101698.94;;;19.95;100.00
72157;BME280;60035;52.122;5.406;2023-07-13T08:37:40;101694.06;;;20.21;100.00
72157;BME280;60035;52.122;5.406;2023-07-13T08:40:09;101697.22;;;20.42;99.11
72157;BME280;60035;52.122;5.406;2023-07-13T08:42:39;101696.94;;;20.46;97.70
72157;BME280;60035;52.122;5.406;2023-07-13T08:45:22;101690.47;;;20.54;94.68
72157;BME280;60035;52.122;5.406;2023-07-13T08:48:11;101693.53;;;20.30;91.12
72157;BME280;60035;52.122;5.406;2023-07-13T08:50:57;101715.47;;;20.26;91.34
72157;BME280;60035;52.122;5.406;2023-07-13T08:53:39;101731.13;;;20.40;88.03
72157;BME280;60035;52.122;5.406;2023-07-13T08:56:11;101726.25;;;20.34;87.53
72157;BME280;60035;52.122;5.406;2023-07-13T08:58:41;101720.06;;;20.21;88.75
72157;BME280;60035;52.122;5.406;2023-07-13T09:01:38;101725.41;;;19.87;89.18
72157;BME280;60035;52.122;5.406;2023-07-13T09:04:22;101740.41;;;19.82;91.45
72157;BME280;60035;52.122;5.406;2023-07-13T09:14:53;101728.97;;;19.35;94.56
72157;BME280;60035;52.122;5.406;2023-07-13T09:17:27;101738.41;;;19.20;96.08
72157;BME280;60035;52.122;5.406;2023-07-13T09:20:26;101726.63;;;19.30;97.13
72157;BME280;60035;52.122;5.406;2023-07-13T09:23:01;101725.59;;;19.51;97.63
72157;BME280;60035;52.122;5.406;2023-07-13T09:25:34;101726.69;;;19.62;98.62
72157;BME280;60035;52.122;5.406;2023-07-13T09:28:12;101724.19;;;19.77;96.42
72157;BME280;60035;52.122;5.406;2023-07-13T09:31:07;101728.06;;;19.86;95.72
72157;BME280;60035;52.122;5.406;2023-07-13T09:33:31;101728.50;;;19.94;93.58
72157;BME280;60035;52.122;5.406;2023-07-13T09:35:59;101724.44;;;20.04;94.22
72157;BME280;60035;52.122;5.406;2023-07-13T09:38:29;101718.22;;;20.39;90.55
72157;BME280;60035;52.122;5.406;2023-07-13T09:41:23;101722.50;;;20.54;89.38
72157;BME280;60035;52.122;5.406;2023-07-13T09:44:29;101712.75;;;20.74;88.14
72157;BME280;60035;52.122;5.406;2023-07-13T09:46:57;101731.56;;;20.63;84.35
72157;BME280;60035;52.122;5.406;2023-07-13T09:49:29;101724.50;;;20.19;88.12
72157;BME280;60035;52.122;5.406;2023-07-13T09:52:07;101742.63;;;20.04;89.74
72157;BME280;60035;52.122;5.406;2023-07-13T09:54:37;101764.38;;;19.87;91.97
72157;BME280;60035;52.122;5.406;2023-07-13T09:57:14;101785.25;;;19.19;100.00
72157;BME280;60035;52.122;5.406;2023-07-13T09:59:43;101780.19;;;18.44;100.00
72157;BME280;60035;52.122;5.406;2023-07-13T10:05:03;101769.97;;;17.64;100.00
72157;BME280;60035;52.122;5.406;2023-07-13T10:07:32;101775.22;;;17.63;100.00
72157;BME280;60035;52.122;5.406;2023-07-13T10:10:00;101772.53;;;18.04;100.00
72157;BME280;60035;52.122;5.406;2023-07-13T10:12:29;101771.13;;;18.35;100.00
72157;BME280;60035;52.122;5.406;2023-07-13T10:15:00;101769.69;;;18.47;100.00
72157;BME280;60035;52.122;5.406;2023-07-13T10:17:48;101777.56;;;18.80;100.00
72157;BME280;60035;52.122;5.406;2023-07-13T10:20:15;101780.66;;;18.89;100.00
72157;BME280;60035;52.122;5.406;2023-07-13T10:22:53;101777.69;;;18.96;100.00
72157;BME280;60035;52.122;5.406;2023-07-13T10:25:25;101777.91;;;19.09;100.00
72157;BME280;60035;52.122;5.406;2023-07-13T10:27:58;101779.88;;;19.22;100.00
72157;BME280;60035;52.122;5.406;2023-07-13T10:30:28;101771.66;;;19.47;100.00
72157;BME280;60035;52.122;5.406;2023-07-13T10:33:00;101766.75;;;19.74;100.00
72157;BME280;60035;52.122;5.406;2023-07-13T10:35:29;101765.47;;;19.99;100.00
72157;BME280;60035;52.122;5.406;2023-07-13T10:38:04;101774.53;;;20.08;100.00
72157;BME280;60035;52.122;5.406;2023-07-13T10:40:41;101777.88;;;19.94;100.00
72157;BME280;60035;52.122;5.406;2023-07-13T10:43:18;101777.00;;;19.77;100.00
72157;BME280;60035;52.122;5.406;2023-07-13T10:45:47;101776.91;;;19.79;100.00
72157;BME280;60035;52.122;5.406;2023-07-13T10:48:18;101794.56;;;19.56;100.00
72157;BME280;60035;52.122;5.406;2023-07-13T10:50:48;101792.34;;;19.48;100.00
72157;BME280;60035;52.122;5.406;2023-07-13T10:53:29;101788.00;;;19.83;100.00
72157;BME280;60035;52.122;5.406;2023-07-13T10:56:02;101780.63;;;20.23;100.00
72157;BME280;60035;52.122;5.406;2023-07-13T10:58:41;101774.94;;;20.62;100.00
72157;BME280;60035;52.122;5.406;2023-07-13T11:01:17;101785.00;;;20.85;100.00
72157;BME280;60035;52.122;5.406;2023-07-13T11:04:00;101781.22;;;20.90;96.59
72157;BME280;60035;52.122;5.406;2023-07-13T11:11:58;101796.13;;;21.17;86.01
72157;BME280;60035;52.122;5.406;2023-07-13T11:14:34;101801.44;;;21.44;86.30
72157;BME280;60035;52.122;5.406;2023-07-13T11:17:33;101801.94;;;21.37;87.88
72157;BME280;60035;52.122;5.406;2023-07-13T11:20:20;101803.88;;;21.33;85.34
72157;BME280;60035;52.122;5.406;2023-07-13T11:22:53;101806.25;;;21.07;85.07
72157;BME280;60035;52.122;5.406;2023-07-13T11:25:35;101785.44;;;21.22;85.00
72157;BME280;60035;52.122;5.406;2023-07-13T11:35:48;101788.50;;;21.14;89.36
72157;BME280;60035;52.122;5.406;2023-07-13T11:38:40;101793.59;;;21.01;89.28
72157;BME280;60035;52.122;5.406;2023-07-13T11:41:07;101796.91;;;20.89;88.91
72157;BME280;60035;52.122;5.406;2023-07-13T11:43:40;101813.81;;;21.12;89.23
72157;BME280;60035;52.122;5.406;2023-07-13T11:46:21;101815.69;;;20.94;89.54
72157;BME280;60035;52.122;5.406;2023-07-13T11:48:50;101816.81;;;20.90;90.79
72157;BME280;60035;52.122;5.406;2023-07-13T11:51:23;101819.41;;;20.90;90.42
72157;BME280;60035;52.122;5.406;2023-07-13T11:53:53;101821.53;;;20.83;92.15
72157;BME280;60035;52.122;5.406;2023-07-13T11:56:24;101821.72;;;20.80;92.38
72157;BME280;60035;52.122;5.406;2023-07-13T11:58:54;101821.97;;;20.75;93.19
72157;BME280;60035;52.122;5.406;2023-07-13T12:01:25;101817.78;;;20.73;94.40
72157;BME280;60035;52.122;5.406;2023-07-13T12:03:53;101827.53;;;20.69;93.68
72157;BME280;60035;52.122;5.406;2023-07-13T12:06:34;101823.91;;;20.56;100.00
72157;BME280;60035;52.122;5.406;2023-07-13T12:09:11;101820.38;;;20.73;99.77
72157;BME280;60035;52.122;5.406;2023-07-13T12:11:46;101818.53;;;21.05;100.00
72157;BME280;60035;52.122;5.406;2023-07-13T12:14:14;101818.13;;;21.27;99.82
72157;BME280;60035;52.122;5.406;2023-07-13T12:16:42;101809.03;;;21.04;96.94
72157;BME280;60035;52.122;5.406;2023-07-13T12:19:27;101812.56;;;21.03;98.92
72157;BME280;60035;52.122;5.406;2023-07-13T12:21:56;101823.75;;;21.05;94.56
72157;BME280;60035;52.122;5.406;2023-07-13T12:24:25;101820.19;;;20.92;93.08
72157;BME280;60035;52.122;5.406;2023-07-13T12:27:00;101819.56;;;20.72;94.19
72157;BME280;60035;52.122;5.406;2023-07-13T12:29:29;101817.72;;;20.89;97.41
72157;BME280;60035;52.122;5.406;2023-07-13T12:31:55;101822.28;;;21.16;97.42
72157;BME280;60035;52.122;5.406;2023-07-13T12:34:24;101813.38;;;21.34;93.48
72157;BME280;60035;52.122;5.406;2023-07-13T12:36:56;101815.72;;;21.68;94.05
72157;BME280;60035;52.122;5.406;2023-07-13T12:39:36;101811.59;;;22.34;91.10
72157;BME280;60035;52.122;5.406;2023-07-13T12:42:21;101820.13;;;22.78;88.79
72157;BME280;60035;52.122;5.406;2023-07-13T12:44:53;101814.53;;;22.57;81.98
72157;BME280;60035;52.122;5.406;2023-07-13T12:47:20;101816.03;;;22.74;84.29
72157;BME280;60035;52.122;5.406;2023-07-13T12:49:50;101807.91;;;22.91;79.09
72157;BME280;60035;52.122;5.406;2023-07-13T12:52:21;101817.13;;;22.44;82.54
72157;BME280;60035;52.122;5.406;2023-07-13T12:54:56;101818.88;;;22.29;80.42
72157;BME280;60035;52.122;5.406;2023-07-13T12:57:38;101815.59;;;22.67;78.73
72157;BME280;60035;52.122;5.406;2023-07-13T13:00:21;101809.81;;;22.89;78.03
72157;BME280;60035;52.122;5.406;2023-07-13T13:05:13;101803.84;;;23.00;79.83
72157;BME280;60035;52.122;5.406;2023-07-13T13:07:41;101808.19;;;22.74;77.13
72157;BME280;60035;52.122;5.406;2023-07-13T13:10:13;101811.53;;;22.63;77.93
72157;BME280;60035;52.122;5.406;2023-07-13T13:12:40;101823.25;;;22.70;77.35
72157;BME280;60035;52.122;5.406;2023-07-13T13:15:10;101812.91;;;22.82;77.03
72157;BME280;60035;52.122;5.406;2023-07-13T13:17:40;101819.66;;;23.11;74.32
72157;BME280;60035;52.122;5.406;2023-07-13T13:20:19;101813.81;;;23.08;72.53
72157;BME280;60035;52.122;5.406;2023-07-13T13:22:46;101814.72;;;23.07;70.30
72157;BME280;60035;52.122;5.406;2023-07-13T13:25:15;101811.59;;;23.02;71.48
72157;BME280;60035;52.122;5.406;2023-07-13T13:27:43;101817.25;;;22.95;73.08
72157;BME280;60035;52.122;5.406;2023-07-13T13:30:11;101823.41;;;22.94;72.93
72157;BME280;60035;52.122;5.406;2023-07-13T13:32:40;101818.91;;;22.84;72.51
72157;BME280;60035;52.122;5.406;2023-07-13T13:35:14;101822.72;;;22.65;73.77
72157;BME280;60035;52.122;5.406;2023-07-13T13:37:41;101817.28;;;22.41;73.30
72157;BME280;60035;52.122;5.406;2023-07-13T13:40:16;101821.31;;;22.32;72.68
72157;BME280;60035;52.122;5.406;2023-07-13T13:42:43;101825.53;;;22.20;73.09
72157;BME280;60035;52.122;5.406;2023-07-13T13:45:11;101825.63;;;22.19;72.41
72157;BME280;60035;52.122;5.406;2023-07-13T13:47:39;101826.41;;;22.48;71.30
72157;BME280;60035;52.122;5.406;2023-07-13T13:52:42;101821.84;;;22.65;69.60
72157;BME280;60035;52.122;5.406;2023-07-13T13:55:18;101821.09;;;22.50;71.13
72157;BME280;60035;52.122;5.406;2023-07-13T13:57:50;101822.34;;;22.44;70.54
72157;BME280;60035;52.122;5.406;2023-07-13T14:00:17;101822.41;;;22.42;69.36
72157;BME280;60035;52.122;5.406;2023-07-13T14:02:48;101825.06;;;22.83;69.79
72157;BME280;60035;52.122;5.406;2023-07-13T14:05:26;101816.69;;;23.03;69.07
72157;BME280;60035;52.122;5.406;2023-07-13T14:07:53;101820.44;;;23.26;67.70
72157;BME280;60035;52.122;5.406;2023-07-13T14:10:20;101828.25;;;23.13;65.57
72157;BME280;60035;52.122;5.406;2023-07-13T14:12:51;101825.91;;;22.96;66.59
72157;BME280;60035;52.122;5.406;2023-07-13T14:15:22;101831.41;;;22.91;67.37
72157;BME280;60035;52.122;5.406;2023-07-13T14:17:49;101827.50;;;22.71;66.43
72157;BME280;60035;52.122;5.406;2023-07-13T14:20:18;101831.75;;;22.46;67.48
72157;BME280;60035;52.122;5.406;2023-07-13T14:22:46;101830.88;;;22.46;68.49
72157;BME280;60035;52.122;5.406;2023-07-13T14:25:14;101837.28;;;22.55;67.90
72157;BME280;60035;52.122;5.406;2023-07-13T14:27:43;101829.75;;;22.50;67.97
72157;BME280;60035;52.122;5.406;2023-07-13T14:32:41;101823.78;;;23.28;66.69
72157;BME280;60035;52.122;5.406;2023-07-13T14:35:11;101835.56;;;23.21;66.65
72157;BME280;60035;52.122;5.406;2023-07-13T14:37:39;101836.66;;;23.04;65.98
72157;BME280;60035;52.122;5.406;2023-07-13T14:40:19;101839.72;;;22.98;67.49
72157;BME280;60035;52.122;5.406;2023-07-13T14:42:48;101840.00;;;22.93;66.46
72157;BME280;60035;52.122;5.406;2023-07-13T14:45:17;101837.78;;;23.15;65.85
72157;BME280;60035;52.122;5.406;2023-07-13T14:47:44;101836.00;;;23.54;64.38
72157;BME280;60035;52.122;5.406;2023-07-13T14:50:19;101840.81;;;23.47;64.84
72157;BME280;60035;52.122;5.406;2023-07-13T14:52:47;101837.34;;;23.34;64.72
72157;BME280;60035;52.122;5.406;2023-07-13T14:55:17;101840.50;;;23.39;64.50
72157;BME280;60035;52.122;5.406;2023-07-13T14:57:45;101838.91;;;23.36;63.59